createdAt,value
2023-04-02T00:02:31.646Z,97810.52
2023-04-02T00:07:33.799Z,97818.55
2023-04-02T00:12:35.748Z,97816.77
2023-04-02T00:17:37.385Z,97818.48
2023-04-02T00:22:44.087Z,97822.01
2023-04-02T00:27:46.122Z,97824.21
2023-04-02T00:32:48.490Z,97825.21
2023-04-02T00:37:50.549Z,97832.63
2023-04-02T00:42:54.581Z,97831.86
2023-04-02T00:47:58.633Z,97833.05
2023-04-02T00:53:09.229Z,97833.44
2023-04-02T00:58:30.046Z,97840.05
2023-04-02T01:03:35.106Z,97835.15
2023-04-02T01:09:06.425Z,97840.80
2023-04-02T01:14:20.510Z,97840.58
2023-04-02T01:19:45.134Z,97840.50
2023-04-02T01:24:47.590Z,97840.44
2023-04-02T01:29:58.718Z,97843.39
2023-04-02T01:35:01.427Z,97844.71
2023-04-02T01:40:21.494Z,97850.45
2023-04-02T01:45:23.816Z,97854.48
2023-04-02T01:50:31.709Z,97853.27
2023-04-02T01:55:42.603Z,97854.91
2023-04-02T02:00:51.953Z,97857.11
2023-04-02T02:05:55.631Z,97857.89
2023-04-02T02:10:59.138Z,97859.67
2023-04-02T02:16:03.133Z,97859.58
2023-04-02T02:21:09.628Z,97861.06
2023-04-02T02:26:13.470Z,97868.31
2023-04-02T02:31:22.866Z,97871.46
2023-04-02T02:36:35.624Z,97871.13
2023-04-02T02:41:45.047Z,97875.55
2023-04-02T02:46:52.774Z,97876.58
2023-04-02T02:52:04.410Z,97877.33
2023-04-02T02:57:17.091Z,97883.62
2023-04-02T03:02:19.856Z,97890.66
2023-04-02T03:07:25.650Z,97893.20
2023-04-02T03:12:36.956Z,97895.13
2023-04-02T03:18:34.557Z,97899.53
2023-04-02T03:23:42.362Z,97904.23
2023-04-02T03:28:52.761Z,97906.98
2023-04-02T03:33:59.728Z,97917.05
2023-04-02T03:39:21.890Z,97915.29
2023-04-02T03:44:35.245Z,97918.94
2023-04-02T03:49:47.533Z,97925.65
2023-04-02T03:54:53.847Z,97926.86
2023-04-02T04:00:21.833Z,97935.84
2023-04-02T04:05:30.330Z,97944.42
2023-04-02T04:10:34.937Z,97949.95
2023-04-02T04:15:48.528Z,97953.54
2023-04-02T04:20:57.309Z,97957.77
2023-04-02T04:26:19.843Z,97967.91
2023-04-02T04:31:30.836Z,97967.23
2023-04-02T04:36:41.585Z,97975.98
2023-04-02T04:41:47.233Z,97980.38
2023-04-02T04:46:54.946Z,97993.27
2023-04-02T04:52:06.915Z,98004.70
2023-04-02T04:57:29.788Z,98007.74
2023-04-02T05:02:40.996Z,98018.52
2023-04-02T05:07:48.027Z,98029.80
2023-04-02T05:13:05.622Z,98037.67
2023-04-02T05:18:24.879Z,98047.10
2023-04-02T05:23:30.938Z,98059.13
2023-04-02T05:28:39.504Z,98074.96
2023-04-02T05:33:46.595Z,98078.95
2023-04-02T05:38:51.147Z,98088.65
2023-04-02T05:44:08.257Z,98098.48
2023-04-02T05:49:20.492Z,98106.73
2023-04-02T05:54:34.850Z,98118.70
2023-04-02T05:59:47.519Z,98128.90
2023-04-02T06:04:56.649Z,98138.34
2023-04-02T06:10:15.550Z,98157.34
2023-04-02T06:15:23.634Z,98173.21
2023-04-02T06:20:33.046Z,98177.27
2023-04-02T06:25:39.884Z,98185.97
2023-04-02T06:30:44.382Z,98203.17
2023-04-02T06:35:47.738Z,98217.15
2023-04-02T06:40:59.115Z,98226.83
2023-04-02T06:46:15.424Z,98240.48
2023-04-02T06:51:41.727Z,98251.59
2023-04-02T06:56:52.847Z,98254.06
2023-04-02T07:02:37.516Z,98270.11
2023-04-02T07:07:41.566Z,98282.19
2023-04-02T07:12:45.097Z,98290.79
2023-04-02T07:17:47.191Z,98301.81
2023-04-02T07:22:49.542Z,98313.52
2023-04-02T07:27:52.712Z,98323.20
2023-04-02T07:32:54.570Z,98340.31
2023-04-02T07:37:56.305Z,98353.25
2023-04-02T07:42:58.041Z,98369.01
2023-04-02T07:48:08.310Z,98377.63
2023-04-02T07:53:28.048Z,98386.34
2023-04-02T07:58:31.427Z,98393.25
2023-04-02T08:03:33.145Z,98404.92
2023-04-02T08:08:35.488Z,98411.60
2023-04-02T08:13:37.717Z,98424.57
2023-04-02T08:18:39.682Z,98429.97
2023-04-02T08:23:41.579Z,98438.35
2023-04-02T08:28:43.278Z,98451.45
2023-04-02T08:33:45.028Z,98458.70
2023-04-02T08:38:46.793Z,98468.46
2023-04-02T08:44:14.176Z,98475.60
2023-04-02T08:49:20.171Z,98483.72
2023-04-02T08:54:28.050Z,98490.70
2023-04-02T08:59:38.767Z,98492.52
2023-04-02T09:04:41.673Z,98507.26
2023-04-02T09:09:48.708Z,98510.48
2023-04-02T09:15:14.957Z,98517.25
2023-04-02T09:20:26.314Z,98527.90
2023-04-02T09:25:32.155Z,98534.67
2023-04-02T09:30:58.322Z,98537.91
2023-04-02T09:36:00.182Z,98549.02
2023-04-02T09:41:07.410Z,98553.16
2023-04-02T09:46:23.551Z,98563.02
2023-04-02T09:51:28.095Z,98575.80
2023-04-02T09:56:32.053Z,98575.56
2023-04-02T10:01:40.233Z,98580.80
2023-04-02T10:06:50.088Z,98583.73
2023-04-02T10:11:55.848Z,98588.84
2023-04-02T10:17:01.413Z,98592.77
2023-04-02T10:22:15.835Z,98601.29
2023-04-02T10:27:42.563Z,98617.02
2023-04-02T10:33:02.418Z,98622.83
2023-04-02T10:38:14.120Z,98626.16
2023-04-02T10:44:09.462Z,98628.06
2023-04-02T10:49:21.971Z,98642.67
2023-04-02T10:54:33.666Z,98652.98
2023-04-02T10:59:39.610Z,98657.27
2023-04-02T11:04:46.171Z,98661.49
2023-04-02T11:09:52.467Z,98669.48
2023-04-02T11:14:56.186Z,98675.64
2023-04-02T11:20:36.711Z,98683.55
2023-04-02T11:25:39.604Z,98683.66
2023-04-02T11:30:42.588Z,98688.34
2023-04-02T11:35:44.325Z,98691.21
2023-04-02T11:40:56.479Z,98694.18
2023-04-02T11:46:05.431Z,98698.45
2023-04-02T11:51:22.554Z,98706.63
2023-04-02T11:56:36.276Z,98707.56
2023-04-02T12:01:56.384Z,98719.88
2023-04-02T12:07:34.719Z,98725.90
2023-04-02T12:12:38.949Z,98730.07
2023-04-02T12:17:40.946Z,98727.41
2023-04-02T12:22:52.080Z,98736.83
2023-04-02T12:28:18.010Z,98745.93
2023-04-02T12:33:19.842Z,98750.66
2023-04-02T12:38:47.664Z,98754.21
2023-04-02T12:44:01.158Z,98758.48
2023-04-02T12:49:25.583Z,98771.23
2023-04-02T12:54:27.372Z,98772.98
2023-04-02T12:59:36.378Z,98778.92
2023-04-02T13:04:50.969Z,98785.34
2023-04-02T13:09:58.709Z,98788.96
2023-04-02T13:15:34.635Z,98793.48
2023-04-02T13:20:41.903Z,98793.02
2023-04-02T13:25:43.959Z,98798.27
2023-04-02T13:30:46.207Z,98803.27
2023-04-02T13:35:48.167Z,98811.22
2023-04-02T13:40:51.386Z,98823.46
2023-04-02T13:45:55.723Z,98826.42
2023-04-02T13:50:57.541Z,98833.63
2023-04-02T13:55:59.421Z,98837.35
2023-04-02T14:01:01.770Z,98842.42
2023-04-02T14:06:16.681Z,98844.45
2023-04-02T14:11:28.598Z,98857.14
2023-04-02T14:17:01.156Z,98865.10
2023-04-02T14:22:30.799Z,98869.62
2023-04-02T14:27:53.438Z,98873.43
2023-04-02T14:33:13.453Z,98882.20
2023-04-02T14:38:24.616Z,98893.42
2023-04-02T14:43:44.202Z,98899.30
2023-04-02T14:49:07.810Z,98904.41
2023-04-02T14:54:19.073Z,98909.24
2023-04-02T14:59:53.327Z,98914.39
2023-04-02T15:05:40.084Z,98918.53
2023-04-02T15:11:12.074Z,98922.67
2023-04-02T15:16:22.387Z,98925.23
2023-04-02T15:21:55.826Z,98934.13
2023-04-02T15:27:14.783Z,98939.10
2023-04-02T15:32:29.409Z,98944.48
2023-04-02T15:37:46.137Z,98946.62
2023-04-02T15:43:22.900Z,98956.56
2023-04-02T15:48:49.109Z,98962.17
2023-04-02T15:53:59.584Z,98967.52
2023-04-02T15:59:26.867Z,98977.66
2023-04-02T16:04:55.887Z,98980.73
2023-04-02T16:10:10.361Z,98991.34
2023-04-02T16:15:23.578Z,99002.02
2023-04-02T16:20:31.680Z,99012.73
2023-04-02T16:25:48.563Z,99015.61
2023-04-02T16:30:56.007Z,99025.01
2023-04-02T16:36:10.213Z,99026.59
2023-04-02T16:41:58.677Z,99026.23
2023-04-02T16:47:21.913Z,99032.55
2023-04-02T16:52:36.244Z,99033.16
2023-04-02T16:57:44.712Z,99038.52
2023-04-02T17:03:02.181Z,99046.01
2023-04-02T17:08:15.404Z,99052.48
2023-04-02T17:13:25.982Z,99059.85
2023-04-02T17:18:27.769Z,99061.88
2023-04-02T17:23:31.344Z,99066.17
2023-04-02T17:28:38.384Z,99075.88
2023-04-02T17:33:40.046Z,99080.31
2023-04-02T17:39:01.936Z,99084.17
2023-04-02T17:44:39.355Z,99084.23
2023-04-02T17:49:46.736Z,99092.98
2023-04-02T17:55:12.334Z,99100.91
2023-04-02T18:00:31.395Z,99110.30
2023-04-02T18:05:32.996Z,99120.46
2023-04-02T18:10:56.798Z,99120.39
2023-04-02T18:16:02.143Z,99125.41
2023-04-02T18:21:21.427Z,99121.88
2023-04-02T18:26:35.316Z,99133.67
2023-04-02T18:31:51.666Z,99142.33
2023-04-02T18:37:15.199Z,99145.60
2023-04-02T18:42:47.884Z,99150.24
2023-04-02T18:47:59.042Z,99146.55
2023-04-02T18:53:12.841Z,99153.49
2023-04-02T18:58:27.099Z,99154.39
2023-04-02T19:03:39.555Z,99162.48
2023-04-02T19:08:51.085Z,99163.88
2023-04-02T19:13:52.862Z,99165.77
2023-04-02T19:19:17.176Z,99171.95
2023-04-02T19:24:38.002Z,99176.26
2023-04-02T19:30:21.989Z,99177.29
2023-04-02T19:35:35.832Z,99183.15
2023-04-02T19:40:37.887Z,99187.60
2023-04-02T19:45:45.705Z,99190.13
2023-04-02T19:50:49.025Z,99188.84
2023-04-02T19:55:50.926Z,99195.77
2023-04-02T20:00:52.772Z,99198.65
2023-04-02T20:05:56.954Z,99202.92
2023-04-02T20:10:59.940Z,99206.45
2023-04-02T20:16:04.595Z,99210.59
2023-04-02T20:21:07.348Z,99214.84
2023-04-02T20:26:09.149Z,99218.43
2023-04-02T20:31:11.813Z,99228.12
2023-04-02T20:36:16.223Z,99230.80
2023-04-02T20:41:19.308Z,99236.58
2023-04-02T20:46:22.313Z,99239.73
2023-04-02T20:51:24.125Z,99242.19
2023-04-02T20:56:27.746Z,99246.47
2023-04-02T21:01:30.542Z,99250.78
2023-04-02T21:06:36.521Z,99253.48
2023-04-02T21:11:38.964Z,99256.51
2023-04-02T21:16:41.782Z,99259.06
2023-04-02T21:21:44.787Z,99262.88
2023-04-02T21:26:47.138Z,99262.72
2023-04-02T21:31:48.978Z,99265.16
2023-04-02T21:36:51.252Z,99266.77
2023-04-02T21:41:56.879Z,99267.99
2023-04-02T21:46:59.514Z,99275.86
2023-04-02T21:52:21.402Z,99281.89
2023-04-02T21:57:23.139Z,99282.29
2023-04-02T22:02:24.857Z,99288.11
2023-04-02T22:07:26.500Z,99289.81
2023-04-02T22:12:28.361Z,99298.85
2023-04-02T22:17:30.085Z,99304.73
2023-04-02T22:22:31.792Z,99310.26
2023-04-02T22:27:33.687Z,99313.11
2023-04-02T22:32:36.708Z,99319.02
2023-04-02T22:37:38.478Z,99321.15
2023-04-02T22:42:40.506Z,99327.08
2023-04-02T22:47:42.366Z,99328.47
2023-04-02T22:52:45.517Z,99333.02
2023-04-02T22:57:47.532Z,99336.85
2023-04-02T23:02:49.263Z,99340.07
2023-04-02T23:07:53.549Z,99345.48
2023-04-02T23:13:17.083Z,99344.82
2023-04-02T23:18:18.814Z,99347.09
2023-04-02T23:23:20.917Z,99346.29
2023-04-02T23:28:23.401Z,99352.86
2023-04-02T23:33:25.108Z,99356.54
2023-04-02T23:38:27.298Z,99359.95
2023-04-02T23:43:33.790Z,99358.59
2023-04-02T23:48:38.905Z,99358.83
2023-04-02T23:53:45.946Z,99362.80
2023-04-02T23:58:48.785Z,99357.67
